Time;durP1;ratioP1;P1;durP2;ratioP2;P2;SDS_P1;SDS_P2;PMS_P1;PMS_P2;Temp;Humidity;BMP_temperature;BMP_pressure;BME280_temperature;BME280_humidity;BME280_pressure;Samples;Min_cycle;Max_cycle;Signal;HPM_P1;HPM_P2
2023/10/04 00:00:54;;;;;;;10.52;2.83;;;14.80;99.90;;;;;;5034899;28;20029;-78
2023/10/04 00:03:19;;;;;;;6.90;1.90;;;14.80;99.90;;;;;;5034160;28;20033;-79
2023/10/04 00:05:45;;;;;;;9.88;2.45;;;14.70;99.90;;;;;;5032986;28;20162;-78
2023/10/04 00:08:11;;;;;;;8.52;2.42;;;14.70;99.90;;;;;;5034034;28;20037;-78
2023/10/04 00:10:36;;;;;;;9.98;2.45;;;14.60;99.90;;;;;;5033428;28;20451;-75
2023/10/04 00:13:03;;;;;;;7.25;1.90;;;14.60;99.90;;;;;;5032938;28;20037;-78
2023/10/04 00:15:31;;;;;;;8.95;2.10;;;14.60;99.90;;;;;;5033279;28;20034;-79
2023/10/04 00:17:57;;;;;;;10.40;2.30;;;14.60;99.90;;;;;;5033092;28;20033;-79
2023/10/04 00:20:31;;;;;;;9.60;2.10;;;14.60;99.90;;;;;;5034060;28;20026;-79
2023/10/04 00:22:56;;;;;;;9.15;2.47;;;14.60;99.90;;;;;;5034800;28;20095;-79
2023/10/04 00:25:23;;;;;;;10.05;3.53;;;14.60;99.90;;;;;;5034590;28;20442;-79
2023/10/04 00:27:50;;;;;;;15.38;2.72;;;14.60;99.90;;;;;;5034255;28;20029;-78
2023/10/04 00:30:18;;;;;;;7.35;2.40;;;14.60;99.90;;;;;;5034453;28;20031;-78
2023/10/04 00:32:46;;;;;;;8.40;2.13;;;14.60;99.90;;;;;;5034683;28;20029;-78
2023/10/04 00:35:17;;;;;;;9.10;2.35;;;14.60;99.90;;;;;;5032828;28;20036;-77
2023/10/04 00:37:46;;;;;;;12.93;2.80;;;14.50;99.90;;;;;;5033365;28;20091;-77
2023/10/04 00:40:15;;;;;;;8.05;2.47;;;14.60;99.90;;;;;;5033987;28;20026;-77
2023/10/04 00:42:41;;;;;;;12.05;2.53;;;14.60;99.90;;;;;;5032674;28;20108;-77
2023/10/04 00:45:12;;;;;;;5.07;2.00;;;14.60;99.90;;;;;;5032659;28;20057;-78
2023/10/04 00:47:41;;;;;;;9.68;2.47;;;14.60;99.90;;;;;;5034104;28;20041;-78
2023/10/04 00:50:15;;;;;;;13.98;2.60;;;14.60;99.90;;;;;;5033858;28;20061;-78
2023/10/04 00:52:47;;;;;;;10.05;2.60;;;14.60;99.90;;;;;;5032472;28;20034;-79
2023/10/04 00:55:18;;;;;;;8.10;2.85;;;14.60;99.90;;;;;;5034179;28;20485;-79
2023/10/04 00:57:45;;;;;;;9.77;2.45;;;14.60;99.90;;;;;;5034456;28;20046;-78
2023/10/04 01:00:11;;;;;;;11.80;2.97;;;14.60;99.90;;;;;;5033647;28;20038;-79
2023/10/04 01:02:39;;;;;;;10.23;2.75;;;14.60;99.90;;;;;;5033249;28;20030;-79
2023/10/04 01:05:06;;;;;;;10.75;2.60;;;14.70;99.90;;;;;;5032797;28;20398;-78
2023/10/04 01:07:32;;;;;;;13.35;2.53;;;14.70;99.90;;;;;;5032384;28;20068;-78
2023/10/04 01:09:58;;;;;;;7.97;2.47;;;14.60;99.90;;;;;;5033675;28;20065;-77
2023/10/04 01:12:24;;;;;;;13.13;2.60;;;14.60;99.90;;;;;;5033711;28;20478;-77
2023/10/04 01:14:53;;;;;;;9.65;2.50;;;14.60;99.90;;;;;;5033918;28;20040;-78
2023/10/04 01:17:19;;;;;;;9.38;2.30;;;14.60;99.90;;;;;;5033228;28;20478;-77
2023/10/04 01:19:45;;;;;;;9.00;2.95;;;14.60;99.90;;;;;;5032541;28;20029;-77
2023/10/04 01:22:11;;;;;;;7.97;2.42;;;14.60;99.90;;;;;;5033807;28;20459;-78
2023/10/04 01:24:41;;;;;;;7.53;2.13;;;14.50;99.90;;;;;;5032267;28;20041;-78
2023/10/04 01:27:10;;;;;;;13.27;2.67;;;14.60;99.90;;;;;;5033310;28;20025;-78
2023/10/04 01:29:38;;;;;;;8.43;2.20;;;14.60;99.90;;;;;;5031962;28;20108;-77
2023/10/04 01:32:07;;;;;;;9.82;2.58;;;14.60;99.90;;;;;;5033452;28;20026;-77
2023/10/04 01:34:33;;;;;;;10.95;2.40;;;14.50;99.90;;;;;;5032454;28;20037;-77
2023/10/04 01:37:03;;;;;;;11.20;2.42;;;14.50;99.90;;;;;;5032187;28;20044;-77
2023/10/04 01:39:30;;;;;;;7.43;2.20;;;14.40;99.90;;;;;;5033113;28;20485;-78
2023/10/04 01:41:56;;;;;;;10.10;2.30;;;14.40;99.90;;;;;;5033278;28;20413;-78
2023/10/04 01:44:21;;;;;;;10.95;2.70;;;14.40;99.90;;;;;;5032015;28;20044;-78
2023/10/04 01:46:47;;;;;;;9.85;2.88;;;14.40;99.90;;;;;;5033220;28;20042;-78
2023/10/04 01:49:13;;;;;;;11.10;2.55;;;14.40;99.90;;;;;;5033017;28;20478;-79
2023/10/04 01:51:42;;;;;;;12.20;2.38;;;14.40;99.90;;;;;;5032129;28;20041;-78
2023/10/04 01:54:09;;;;;;;10.38;2.10;;;14.40;99.90;;;;;;5033226;28;20057;-79
2023/10/04 01:56:37;;;;;;;13.90;3.45;;;14.40;99.90;;;;;;5033423;28;20116;-80
2023/10/04 01:59:04;;;;;;;5.93;2.38;;;14.40;99.90;;;;;;5032830;28;20026;-79
2023/10/04 02:01:29;;;;;;;13.57;2.70;;;14.40;99.90;;;;;;5033461;28;20041;-78
2023/10/04 02:03:55;;;;;;;11.73;2.80;;;14.40;99.90;;;;;;5033705;28;20374;-78
2023/10/04 02:06:20;;;;;;;12.70;2.97;;;14.40;99.90;;;;;;5033057;28;20033;-79
2023/10/04 02:08:46;;;;;;;7.50;2.08;;;14.40;99.90;;;;;;5033430;28;20466;-79
2023/10/04 02:11:13;;;;;;;8.43;2.90;;;14.40;99.90;;;;;;5032689;28;20374;-78
2023/10/04 02:13:40;;;;;;;11.30;2.80;;;14.40;99.90;;;;;;5033089;28;20029;-79
2023/10/04 02:16:08;;;;;;;9.43;2.42;;;14.50;99.90;;;;;;5035965;28;20033;-79
2023/10/04 02:18:34;;;;;;;8.43;2.80;;;14.50;99.90;;;;;;5036507;28;20033;-78
2023/10/04 02:21:00;;;;;;;12.15;2.88;;;14.40;99.90;;;;;;5036608;28;20060;-78
2023/10/04 02:23:25;;;;;;;10.90;2.80;;;14.40;99.90;;;;;;5035751;28;20477;-79
2023/10/04 02:25:52;;;;;;;10.95;3.13;;;14.40;99.90;;;;;;5034938;28;20030;-79
2023/10/04 02:28:23;;;;;;;11.63;2.67;;;14.40;99.90;;;;;;5034705;28;20061;-78
2023/10/04 02:30:50;;;;;;;11.35;2.97;;;14.40;99.90;;;;;;5036682;28;20043;-78
2023/10/04 02:33:18;;;;;;;8.82;2.72;;;14.40;99.90;;;;;;5036355;28;20052;-78
2023/10/04 02:35:44;;;;;;;10.85;2.58;;;14.40;99.90;;;;;;5036493;28;20068;-79
2023/10/04 02:38:26;;;;;;;11.80;2.80;;;14.40;99.90;;;;;;5036223;28;20106;-78
2023/10/04 02:40:55;;;;;;;14.45;3.05;;;14.40;99.90;;;;;;5036177;28;20029;-78
2023/10/04 02:43:23;;;;;;;14.48;3.38;;;14.40;99.90;;;;;;5034796;28;20040;-79
2023/10/04 02:45:50;;;;;;;10.10;2.78;;;14.40;99.90;;;;;;5035740;28;20029;-78
2023/10/04 02:48:16;;;;;;;11.18;2.50;;;14.50;99.90;;;;;;5035962;28;20037;-79
2023/10/04 02:50:43;;;;;;;9.75;2.80;;;14.50;99.90;;;;;;5036093;28;20026;-78
2023/10/04 02:53:12;;;;;;;12.60;3.03;;;14.50;99.90;;;;;;5036140;28;20033;-80
2023/10/04 02:55:39;;;;;;;11.88;3.13;;;14.50;99.90;;;;;;5036433;28;20374;-79
2023/10/04 02:58:06;;;;;;;8.55;2.90;;;14.50;99.90;;;;;;5035795;28;20072;-79
2023/10/04 03:00:33;;;;;;;9.05;2.58;;;14.50;99.90;;;;;;5035566;28;20413;-79
2023/10/04 03:02:59;;;;;;;8.98;2.88;;;14.50;99.90;;;;;;5035966;28;20112;-79
2023/10/04 03:05:28;;;;;;;8.35;2.75;;;14.50;99.90;;;;;;5035644;28;20498;-78
2023/10/04 03:07:55;;;;;;;13.98;2.95;;;14.50;99.90;;;;;;5035571;28;20045;-79
2023/10/04 03:10:24;;;;;;;7.47;2.67;;;14.50;99.90;;;;;;5035667;28;20025;-79
2023/10/04 03:12:54;;;;;;;10.10;2.95;;;14.50;99.90;;;;;;5035780;28;20033;-79
2023/10/04 03:15:22;;;;;;;12.60;3.03;;;14.50;99.90;;;;;;5035552;28;20030;-78
2023/10/04 03:17:51;;;;;;;10.98;2.92;;;14.50;99.90;;;;;;5036269;28;20068;-79
2023/10/04 03:20:20;;;;;;;12.93;3.42;;;14.50;99.90;;;;;;5035904;28;20033;-78
2023/10/04 03:22:51;;;;;;;10.73;2.30;;;14.50;99.90;;;;;;5035332;28;20046;-79
2023/10/04 03:25:17;;;;;;;12.40;3.58;;;14.50;99.90;;;;;;5035409;28;20052;-79
2023/10/04 03:27:44;;;;;;;9.55;2.78;;;14.40;99.90;;;;;;5034524;28;20111;-78
2023/10/04 03:30:14;;;;;;;9.82;2.47;;;14.40;99.90;;;;;;5035731;28;20049;-78
2023/10/04 03:32:55;;;;;;;12.98;3.28;;;14.40;99.90;;;;;;5035719;28;20042;-78
2023/10/04 03:35:22;;;;;;;12.05;2.45;;;14.50;99.90;;;;;;5034501;28;20368;-79
2023/10/04 03:37:58;;;;;;;10.63;2.75;;;14.40;99.90;;;;;;5033501;28;20043;-78
2023/10/04 03:40:34;;;;;;;10.30;2.85;;;14.40;99.90;;;;;;5035877;28;20030;-79
2023/10/04 03:43:05;;;;;;;12.65;3.13;;;14.40;99.90;;;;;;5035278;28;20455;-79
2023/10/04 03:45:35;;;;;;;13.82;3.08;;;14.30;99.90;;;;;;5035546;28;20053;-79
2023/10/04 03:48:01;;;;;;;9.18;3.00;;;14.30;99.90;;;;;;5033636;28;20041;-78
2023/10/04 03:50:27;;;;;;;8.57;2.42;;;14.30;99.90;;;;;;5034211;28;20033;-78
2023/10/04 03:52:59;;;;;;;12.70;2.92;;;14.30;99.90;;;;;;5035103;28;20030;-78
2023/10/04 03:55:28;;;;;;;9.38;2.42;;;14.30;99.90;;;;;;5035119;28;20037;-78
2023/10/04 03:57:54;;;;;;;8.88;2.60;;;14.30;99.90;;;;;;5034551;28;20056;-77
2023/10/04 04:00:22;;;;;;;14.45;3.10;;;14.30;99.90;;;;;;5034936;28;20030;-78
2023/10/04 04:02:49;;;;;;;11.98;2.70;;;14.30;99.90;;;;;;5034601;28;20493;-77
2023/10/04 04:05:15;;;;;;;13.43;3.10;;;14.30;99.90;;;;;;5033679;28;20033;-77
2023/10/04 04:07:43;;;;;;;12.48;2.65;;;14.30;99.90;;;;;;5034431;28;20040;-77
2023/10/04 04:10:11;;;;;;;8.88;2.53;;;14.30;99.90;;;;;;5034422;28;20032;-78
2023/10/04 04:12:40;;;;;;;10.68;2.55;;;14.20;99.90;;;;;;5032945;28;20099;-78
2023/10/04 04:15:10;;;;;;;12.88;2.83;;;14.20;99.90;;;;;;5034291;28;20034;-77
2023/10/04 04:17:37;;;;;;;9.48;2.65;;;14.30;99.90;;;;;;5034780;28;20452;-78
2023/10/04 04:20:08;;;;;;;12.13;3.00;;;14.20;99.90;;;;;;5034271;28;20060;-77
2023/10/04 04:22:34;;;;;;;9.75;2.80;;;14.20;99.90;;;;;;5034207;28;20035;-78
2023/10/04 04:25:00;;;;;;;13.02;2.63;;;14.20;99.90;;;;;;5034175;28;20417;-78
2023/10/04 04:27:27;;;;;;;13.32;3.25;;;14.20;99.90;;;;;;5034085;28;20064;-78
2023/10/04 04:29:53;;;;;;;10.75;2.63;;;14.20;99.90;;;;;;5033136;28;20132;-76
2023/10/04 04:32:26;;;;;;;11.52;3.03;;;14.20;99.90;;;;;;5015998;28;20052;-76
2023/10/04 04:34:54;;;;;;;11.20;2.95;;;14.20;99.90;;;;;;5033513;28;20040;-78
2023/10/04 04:37:23;;;;;;;7.57;3.17;;;14.10;99.90;;;;;;5034041;28;20044;-78
2023/10/04 04:39:51;;;;;;;11.18;3.13;;;14.10;99.90;;;;;;5034733;28;20030;-78
2023/10/04 04:42:30;;;;;;;13.63;3.33;;;14.10;99.90;;;;;;5033889;28;20427;-78
2023/10/04 04:44:56;;;;;;;6.05;2.33;;;14.10;99.90;;;;;;5034486;28;20037;-79
2023/10/04 04:47:22;;;;;;;8.90;2.30;;;14.10;99.90;;;;;;5033761;28;20037;-78
2023/10/04 04:49:48;;;;;;;10.48;2.13;;;14.20;99.90;;;;;;5033496;28;20113;-78
2023/10/04 04:52:14;;;;;;;11.25;2.80;;;14.30;99.90;;;;;;5033720;28;20495;-78
2023/10/04 04:54:40;;;;;;;9.63;2.40;;;14.30;99.90;;;;;;5032616;28;20108;-78
2023/10/04 04:57:07;;;;;;;12.75;2.92;;;14.30;99.90;;;;;;5033375;28;20113;-78
2023/10/04 04:59:33;;;;;;;13.70;2.78;;;14.40;99.90;;;;;;5032436;28;20044;-78
2023/10/04 05:02:00;;;;;;;12.43;3.00;;;14.40;99.90;;;;;;5032481;28;20501;-76
2023/10/04 05:04:27;;;;;;;9.52;2.65;;;14.30;99.90;;;;;;5032041;28;20061;-76
2023/10/04 05:06:53;;;;;;;9.38;2.75;;;14.30;99.90;;;;;;5034148;28;20124;-79
2023/10/04 05:09:18;;;;;;;12.05;2.80;;;14.30;99.90;;;;;;5032858;28;20168;-79
2023/10/04 05:11:45;;;;;;;7.40;2.55;;;14.20;99.90;;;;;;5032334;28;20033;-80
2023/10/04 05:14:11;;;;;;;9.10;2.80;;;14.20;99.90;;;;;;5031949;28;20033;-80
2023/10/04 05:16:37;;;;;;;8.93;2.30;;;14.20;99.90;;;;;;5033174;28;20371;-80
2023/10/04 05:19:10;;;;;;;10.40;2.58;;;14.20;99.90;;;;;;5033475;28;20030;-80
2023/10/04 05:21:36;;;;;;;11.82;2.88;;;14.20;99.90;;;;;;5033422;28;20041;-80
2023/10/04 05:24:03;;;;;;;9.00;2.22;;;14.20;99.90;;;;;;5032222;28;20033;-79
2023/10/04 05:26:29;;;;;;;9.27;2.50;;;14.10;99.90;;;;;;5033235;28;20052;-80
2023/10/04 05:28:55;;;;;;;12.55;3.08;;;14.10;99.90;;;;;;5033286;28;20132;-80
2023/10/04 05:31:21;;;;;;;11.85;2.45;;;14.10;99.90;;;;;;5033535;28;20375;-78
2023/10/04 05:33:47;;;;;;;10.13;2.72;;;14.10;99.90;;;;;;5033437;28;20038;-77
2023/10/04 05:36:12;;;;;;;5.53;2.22;;;14.10;99.90;;;;;;5033128;28;20042;-77
2023/10/04 05:38:38;;;;;;;10.30;2.30;;;14.10;99.90;;;;;;5033643;28;20505;-77
2023/10/04 05:41:04;;;;;;;12.30;2.53;;;14.10;99.90;;;;;;5033408;28;20033;-77
2023/10/04 05:43:30;;;;;;;12.63;2.83;;;14.10;99.90;;;;;;5032974;28;20037;-77
2023/10/04 05:45:56;;;;;;;11.02;2.33;;;14.20;99.90;;;;;;5032277;28;20095;-77
2023/10/04 05:48:21;;;;;;;8.77;2.58;;;14.20;99.90;;;;;;5033406;28;20036;-77
2023/10/04 05:50:50;;;;;;;12.00;3.63;;;14.20;99.90;;;;;;5035013;28;20030;-78
2023/10/04 05:53:22;;;;;;;9.55;2.97;;;14.30;99.90;;;;;;5035760;28;20027;-77
2023/10/04 05:55:51;;;;;;;8.63;2.40;;;14.30;99.90;;;;;;5037361;28;20033;-77
2023/10/04 05:58:18;;;;;;;11.48;2.92;;;14.40;99.90;;;;;;5037079;28;20286;-78
2023/10/04 06:00:51;;;;;;;10.93;2.70;;;14.40;99.90;;;;;;5037296;28;20386;-82
2023/10/04 06:03:17;;;;;;;12.65;2.58;;;14.50;99.90;;;;;;5038300;28;20025;-82
2023/10/04 06:05:43;;;;;;;9.40;1.90;;;14.50;99.90;;;;;;5037124;28;20052;-77
2023/10/04 06:08:18;;;;;;;6.78;1.67;;;14.50;99.90;;;;;;5018987;28;20049;-75
2023/10/04 06:10:44;;;;;;;7.10;2.03;;;14.60;99.90;;;;;;5036883;28;20032;-76
2023/10/04 06:13:13;;;;;;;9.55;1.88;;;14.80;99.90;;;;;;5035525;28;20061;-78
2023/10/04 06:15:40;;;;;;;7.25;1.50;;;14.90;99.90;;;;;;5036358;28;20030;-79
2023/10/04 06:18:07;;;;;;;6.15;1.50;;;15.10;99.90;;;;;;5036403;28;20524;-79
2023/10/04 06:20:36;;;;;;;8.32;1.50;;;15.20;99.90;;;;;;5036427;28;20048;-78
2023/10/04 06:23:06;;;;;;;8.32;2.03;;;15.40;99.90;;;;;;5036506;28;20034;-76
2023/10/04 06:25:34;;;;;;;6.07;1.50;;;15.50;99.90;;;;;;5036821;28;20151;-78
2023/10/04 06:28:04;;;;;;;6.22;1.80;;;15.60;99.90;;;;;;5036055;28;20051;-77
2023/10/04 06:30:31;;;;;;;6.80;1.90;;;15.70;99.90;;;;;;5036057;28;20098;-78
2023/10/04 06:33:02;;;;;;;9.45;2.97;;;15.70;99.90;;;;;;5036393;28;20036;-78
2023/10/04 06:35:29;;;;;;;15.10;2.90;;;15.70;99.90;;;;;;5036237;28;20040;-78
2023/10/04 06:38:04;;;;;;;12.98;2.72;;;15.70;99.90;;;;;;5036318;28;20040;-79
2023/10/04 06:40:32;;;;;;;12.60;3.22;;;15.60;99.90;;;;;;5037024;28;20029;-82
2023/10/04 06:43:00;;;;;;;8.52;2.70;;;15.60;99.90;;;;;;5036260;28;20052;-77
2023/10/04 06:45:27;;;;;;;10.32;3.10;;;15.50;99.90;;;;;;5035679;28;20029;-79
2023/10/04 06:47:54;;;;;;;7.50;2.75;;;15.40;99.90;;;;;;5034695;28;20041;-78
2023/10/04 06:50:21;;;;;;;9.27;3.47;;;15.40;99.90;;;;;;5036174;28;20025;-77
2023/10/04 06:52:51;;;;;;;13.55;3.38;;;15.40;99.90;;;;;;5034776;28;20084;-75
2023/10/04 06:55:19;;;;;;;14.98;2.95;;;15.40;99.90;;;;;;5034480;28;20025;-77
2023/10/04 06:57:46;;;;;;;15.15;3.55;;;15.40;99.90;;;;;;5035810;28;20358;-78
2023/10/04 07:00:18;;;;;;;12.38;3.08;;;15.40;99.90;;;;;;5034503;28;20458;-78
2023/10/04 07:02:57;;;;;;;19.58;3.88;;;15.40;99.90;;;;;;5035472;28;20546;-79
2023/10/04 07:05:26;;;;;;;13.40;3.80;;;15.30;99.90;;;;;;5035749;28;20117;-77
2023/10/04 07:07:54;;;;;;;10.18;3.80;;;15.20;99.90;;;;;;5035460;28;20041;-80
2023/10/04 07:10:30;;;;;;;11.15;3.53;;;15.10;99.90;;;;;;5035375;28;20025;-76
2023/10/04 07:12:58;;;;;;;14.52;3.85;;;15.20;99.90;;;;;;5034233;28;20125;-75
2023/10/04 07:15:28;;;;;;;13.13;3.70;;;15.10;99.90;;;;;;5035418;28;20084;-78
2023/10/04 07:17:54;;;;;;;12.23;3.63;;;15.00;99.90;;;;;;5035163;28;20425;-79
2023/10/04 07:20:20;;;;;;;10.77;3.47;;;15.10;99.90;;;;;;5035432;28;20060;-77
2023/10/04 07:22:58;;;;;;;11.63;2.85;;;15.10;99.90;;;;;;5035377;28;20462;-78
2023/10/04 07:25:28;;;;;;;17.85;3.65;;;15.20;99.90;;;;;;5035353;28;20026;-78
2023/10/04 07:27:58;;;;;;;14.20;3.72;;;15.20;99.90;;;;;;5034849;28;20042;-77
2023/10/04 07:30:25;;;;;;;12.73;3.60;;;15.20;99.90;;;;;;5036016;28;20064;-74
2023/10/04 07:32:51;;;;;;;13.68;3.60;;;15.20;99.90;;;;;;5035511;28;20029;-77
2023/10/04 07:35:23;;;;;;;9.52;2.92;;;15.30;99.90;;;;;;5035557;28;20095;-75
2023/10/04 07:37:49;;;;;;;11.18;2.90;;;15.30;99.90;;;;;;5034502;28;20030;-75
2023/10/04 07:40:17;;;;;;;11.57;3.28;;;15.40;99.90;;;;;;5034708;28;20037;-75
2023/10/04 07:42:47;;;;;;;13.70;3.78;;;15.40;99.90;;;;;;5034702;28;20116;-75
2023/10/04 07:45:14;;;;;;;11.52;3.92;;;15.40;99.90;;;;;;5034934;28;20030;-73
2023/10/04 07:47:41;;;;;;;16.15;4.18;;;15.40;99.90;;;;;;5034948;28;20057;-77
2023/10/04 07:50:13;;;;;;;14.15;4.10;;;15.40;99.90;;;;;;5034484;28;20090;-75
2023/10/04 07:52:41;;;;;;;21.90;5.00;;;15.50;99.90;;;;;;5034868;28;20351;-75
2023/10/04 07:55:15;;;;;;;15.13;4.25;;;15.40;99.90;;;;;;5034448;28;20272;-76
2023/10/04 07:57:44;;;;;;;11.52;3.90;;;15.40;99.90;;;;;;5034188;28;20366;-74
2023/10/04 08:00:16;;;;;;;12.75;3.30;;;15.50;99.90;;;;;;5034529;28;20469;-75
2023/10/04 08:02:46;;;;;;;14.60;3.17;;;15.60;99.90;;;;;;5034996;28;20052;-75
2023/10/04 08:05:20;;;;;;;9.52;3.45;;;15.60;99.90;;;;;;5034857;28;20356;-75
2023/10/04 08:07:51;;;;;;;11.75;3.83;;;15.80;99.90;;;;;;5034500;28;20109;-74
2023/10/04 08:10:17;;;;;;;12.30;3.83;;;15.80;99.90;;;;;;5034245;28;20026;-74
2023/10/04 08:12:44;;;;;;;18.17;3.85;;;15.80;99.90;;;;;;5033971;28;20045;-76
2023/10/04 08:15:13;;;;;;;12.93;4.15;;;15.90;99.90;;;;;;5034124;28;20040;-75
2023/10/04 08:17:48;;;;;;;11.65;4.07;;;15.90;99.90;;;;;;5034259;28;20045;-77
2023/10/04 08:20:17;;;;;;;15.35;4.22;;;15.80;99.90;;;;;;5034143;28;20037;-76
2023/10/04 08:22:44;;;;;;;14.10;3.38;;;15.80;99.90;;;;;;5034158;28;20032;-76
2023/10/04 08:25:13;;;;;;;15.07;4.10;;;15.90;99.90;;;;;;5032762;28;20418;-76
2023/10/04 08:27:39;;;;;;;13.10;3.65;;;15.90;99.90;;;;;;5034013;28;20029;-75
2023/10/04 08:30:12;;;;;;;13.05;3.67;;;16.00;99.90;;;;;;5033396;28;20123;-74
2023/10/04 08:32:43;;;;;;;12.15;4.20;;;16.10;99.90;;;;;;5034524;28;20033;-75
2023/10/04 08:35:21;;;;;;;14.88;4.22;;;16.00;99.90;;;;;;5033708;28;20021;-76
2023/10/04 08:37:52;;;;;;;14.57;3.58;;;16.00;99.90;;;;;;5033634;28;20033;-74
2023/10/04 08:40:19;;;;;;;16.15;4.25;;;16.00;99.90;;;;;;5033558;28;20051;-74
2023/10/04 08:42:47;;;;;;;20.98;4.43;;;16.00;99.90;;;;;;5032490;28;20038;-75
2023/10/04 08:45:13;;;;;;;14.65;4.13;;;16.10;99.90;;;;;;5033812;28;20021;-76
2023/10/04 08:47:39;;;;;;;14.15;3.88;;;16.20;99.90;;;;;;5032501;28;20037;-77
2023/10/04 08:50:11;;;;;;;15.48;4.00;;;16.20;99.90;;;;;;5033419;28;20036;-76
2023/10/04 08:52:42;;;;;;;13.35;3.97;;;16.30;99.90;;;;;;5034051;28;20417;-75
2023/10/04 08:55:13;;;;;;;16.85;4.18;;;16.30;99.90;;;;;;5033971;28;20037;-75
2023/10/04 08:57:39;;;;;;;11.60;3.90;;;16.30;99.90;;;;;;5033916;28;20037;-76
2023/10/04 09:00:13;;;;;;;17.80;4.55;;;16.40;99.90;;;;;;5033459;28;20030;-76
2023/10/04 09:02:43;;;;;;;12.20;3.70;;;16.40;99.90;;;;;;5033779;28;20044;-75
2023/10/04 09:05:11;;;;;;;10.43;3.00;;;16.40;99.90;;;;;;5033199;28;20433;-76
2023/10/04 09:07:37;;;;;;;17.60;4.55;;;16.50;99.90;;;;;;5033291;28;20037;-75
2023/10/04 09:10:05;;;;;;;13.15;4.38;;;16.50;99.90;;;;;;5032291;28;20367;-74
2023/10/04 09:12:31;;;;;;;13.70;4.00;;;16.50;99.90;;;;;;5033639;28;20025;-73
2023/10/04 09:14:57;;;;;;;14.23;3.75;;;16.60;99.90;;;;;;5033432;28;20064;-72
2023/10/04 09:17:25;;;;;;;17.95;4.47;;;16.60;99.90;;;;;;5033898;28;20037;-74
2023/10/04 09:19:52;;;;;;;13.40;3.95;;;16.60;99.90;;;;;;5033859;28;20125;-75
2023/10/04 09:22:29;;;;;;;12.90;3.58;;;16.70;99.90;;;;;;5033093;28;20351;-76
2023/10/04 09:24:56;;;;;;;13.30;3.60;;;16.70;99.90;;;;;;5035217;28;20409;-75
2023/10/04 09:27:23;;;;;;;15.93;4.00;;;16.80;99.90;;;;;;5037455;28;20044;-74
2023/10/04 09:29:49;;;;;;;14.88;4.05;;;16.80;99.70;;;;;;5037004;28;20144;-75
2023/10/04 09:32:16;;;;;;;18.92;3.72;;;16.90;99.60;;;;;;5036040;28;20084;-75
2023/10/04 09:35:03;;;;;;;13.82;3.53;;;16.90;99.70;;;;;;5037085;28;20427;-77
2023/10/04 09:37:29;;;;;;;16.30;4.22;;;17.00;99.80;;;;;;5037559;28;20092;-78
2023/10/04 09:40:08;;;;;;;11.95;3.72;;;17.00;99.70;;;;;;5036829;28;20469;-76
2023/10/04 09:42:54;;;;;;;14.73;3.47;;;17.00;99.70;;;;;;5019456;28;20113;-73
2023/10/04 09:45:21;;;;;;;16.67;3.70;;;17.10;99.50;;;;;;5037421;28;20033;-75
2023/10/04 09:47:50;;;;;;;13.05;3.20;;;17.00;99.10;;;;;;5037027;28;20025;-75
2023/10/04 09:50:24;;;;;;;11.52;3.33;;;17.00;99.00;;;;;;5036990;28;20484;-78
2023/10/04 09:52:51;;;;;;;11.98;3.33;;;17.00;99.10;;;;;;5037349;28;20030;-75
2023/10/04 09:55:17;;;;;;;14.95;3.95;;;17.00;99.00;;;;;;5037543;28;20121;-74
2023/10/04 09:57:44;;;;;;;11.10;3.75;;;17.00;98.80;;;;;;5036905;28;20448;-75
2023/10/04 10:00:22;;;;;;;16.40;3.40;;;17.00;98.80;;;;;;5036635;28;20025;-76
2023/10/04 10:02:59;;;;;;;11.50;3.50;;;17.00;99.00;;;;;;5036709;28;20025;-74
2023/10/04 10:05:27;;;;;;;12.57;3.88;;;17.00;99.10;;;;;;5037104;28;20022;-75
2023/10/04 10:07:54;;;;;;;13.20;3.40;;;17.00;99.10;;;;;;5036531;28;20040;-74
2023/10/04 10:10:24;;;;;;;16.90;3.60;;;17.00;99.10;;;;;;5018856;28;20489;-73
2023/10/04 10:12:51;;;;;;;15.00;4.00;;;17.00;99.20;;;;;;5036867;28;20116;-75
2023/10/04 10:15:21;;;;;;;14.38;4.38;;;17.10;99.40;;;;;;5036502;28;20029;-74
2023/10/04 10:17:48;;;;;;;13.38;3.85;;;17.10;99.30;;;;;;5036463;28;20124;-73
2023/10/04 10:20:16;;;;;;;17.80;4.20;;;17.10;98.80;;;;;;5036096;28;20025;-74
2023/10/04 10:22:59;;;;;;;14.18;4.35;;;17.10;98.60;;;;;;5036106;28;20021;-74
2023/10/04 10:25:32;;;;;;;16.77;3.95;;;17.00;98.80;;;;;;5036178;28;20029;-75
2023/10/04 10:28:01;;;;;;;13.75;4.68;;;17.00;99.00;;;;;;5036407;28;20076;-74
2023/10/04 10:30:28;;;;;;;14.98;3.83;;;17.00;99.00;;;;;;5035471;28;20057;-74
2023/10/04 10:32:56;;;;;;;16.50;4.03;;;17.10;99.00;;;;;;5033488;28;20030;-74
2023/10/04 10:36:06;;;;;;;18.70;3.58;;;17.10;98.80;;;;;;5032828;28;20489;-74
2023/10/04 10:38:41;;;;;;;14.32;4.18;;;17.10;98.60;;;;;;5034053;28;20063;-73
2023/10/04 10:41:51;;;;;;;15.27;4.30;;;17.10;98.30;;;;;;5034777;28;20026;-75
2023/10/04 10:44:20;;;;;;;13.38;4.35;;;17.10;98.40;;;;;;5032022;28;20117;-75
2023/10/04 10:47:23;;;;;;;11.60;3.78;;;17.00;98.40;;;;;;5034492;28;20054;-75
2023/10/04 10:50:12;;;;;;;14.45;4.45;;;17.00;98.40;;;;;;5033452;28;20029;-74
2023/10/04 10:52:39;;;;;;;12.32;3.50;;;17.10;98.40;;;;;;5034940;28;20160;-74
2023/10/04 10:55:16;;;;;;;13.23;3.67;;;17.10;98.50;;;;;;5034792;28;20079;-75
2023/10/04 10:57:44;;;;;;;15.68;4.07;;;17.20;98.50;;;;;;5034631;28;20044;-75
2023/10/04 11:00:18;;;;;;;12.73;3.60;;;17.20;98.20;;;;;;5034595;28;20045;-76
2023/10/04 11:02:48;;;;;;;11.35;3.80;;;17.30;98.20;;;;;;5034095;28;20029;-75
2023/10/04 11:05:16;;;;;;;13.98;4.05;;;17.20;98.10;;;;;;5034576;28;20029;-75
2023/10/04 11:07:45;;;;;;;14.73;4.22;;;17.30;98.10;;;;;;5034784;28;20033;-76
2023/10/04 11:10:19;;;;;;;13.23;3.70;;;17.30;97.60;;;;;;5033345;28;20116;-74
2023/10/04 11:12:57;;;;;;;10.15;3.30;;;17.30;97.50;;;;;;5034428;28;20184;-74
2023/10/04 11:15:26;;;;;;;12.20;4.07;;;17.30;97.70;;;;;;5034732;28;20478;-74
2023/10/04 11:17:52;;;;;;;17.02;3.78;;;17.40;97.70;;;;;;5034571;28;20116;-75
2023/10/04 11:20:18;;;;;;;12.20;3.90;;;17.50;97.50;;;;;;5034685;28;20100;-77
2023/10/04 11:22:45;;;;;;;13.65;3.63;;;17.50;97.40;;;;;;5034050;28;20425;-75
2023/10/04 11:25:13;;;;;;;15.90;4.25;;;17.60;97.30;;;;;;5034440;28;20051;-76
2023/10/04 11:27:45;;;;;;;9.40;3.53;;;17.60;97.00;;;;;;5032881;28;20037;-76
2023/10/04 11:30:23;;;;;;;13.73;3.58;;;17.70;96.60;;;;;;4990754;28;1224155;-78
2023/10/04 11:32:50;;;;;;;13.57;3.70;;;17.70;96.20;;;;;;5035412;28;20033;-77
2023/10/04 11:35:18;;;;;;;9.48;3.40;;;17.80;96.20;;;;;;5033826;28;20445;-76
2023/10/04 11:37:45;;;;;;;9.88;3.33;;;17.90;96.00;;;;;;5034987;28;20041;-77
2023/10/04 11:40:13;;;;;;;9.98;3.20;;;17.90;95.90;;;;;;5034593;28;20394;-76
2023/10/04 11:42:41;;;;;;;12.68;4.63;;;18.00;95.70;;;;;;5035192;28;20112;-77
2023/10/04 11:45:26;;;;;;;15.38;4.22;;;18.00;94.80;;;;;;5034696;28;20029;-77
2023/10/04 11:48:05;;;;;;;9.77;3.83;;;18.00;94.50;;;;;;5034227;28;20045;-76
2023/10/04 11:51:03;;;;;;;11.05;3.60;;;18.00;94.80;;;;;;5033888;28;20390;-75
2023/10/04 11:53:42;;;;;;;11.35;3.80;;;17.90;94.50;;;;;;5032792;28;20041;-75
2023/10/04 11:56:10;;;;;;;11.27;3.85;;;17.90;94.70;;;;;;5034995;28;20083;-75
2023/10/04 11:58:51;;;;;;;10.63;3.50;;;17.90;94.60;;;;;;5033600;28;20056;-75
2023/10/04 12:01:19;;;;;;;11.55;3.47;;;17.90;94.70;;;;;;5034592;28;20315;-76
2023/10/04 12:03:56;;;;;;;15.07;4.38;;;17.90;94.70;;;;;;5033713;28;20030;-73
2023/10/04 12:06:27;;;;;;;11.68;3.88;;;18.00;94.30;;;;;;5032364;28;20029;-75
2023/10/04 12:08:54;;;;;;;13.70;4.15;;;17.90;94.10;;;;;;5034482;28;20029;-76
2023/10/04 12:11:25;;;;;;;13.50;4.13;;;17.90;94.30;;;;;;5034227;28;20029;-76
2023/10/04 12:13:51;;;;;;;11.63;3.97;;;17.90;93.90;;;;;;5035038;28;20037;-77
2023/10/04 12:16:17;;;;;;;12.98;4.05;;;17.90;94.20;;;;;;5034326;28;20108;-77
2023/10/04 12:18:45;;;;;;;11.00;3.72;;;17.90;94.10;;;;;;5033150;28;20048;-76
2023/10/04 12:21:12;;;;;;;11.55;4.15;;;17.90;93.70;;;;;;5033865;28;20178;-77
2023/10/04 12:23:38;;;;;;;13.68;3.95;;;18.00;93.70;;;;;;5034148;28;20029;-76
2023/10/04 12:26:04;;;;;;;12.00;3.70;;;18.00;93.90;;;;;;5032313;28;20127;-78
2023/10/04 12:28:30;;;;;;;14.48;3.60;;;18.00;93.80;;;;;;5034137;28;20040;-75
2023/10/04 12:31:03;;;;;;;11.27;3.72;;;18.10;93.90;;;;;;5033734;28;20143;-75
2023/10/04 12:33:34;;;;;;;14.68;4.22;;;18.00;93.70;;;;;;5034078;28;20025;-77
2023/10/04 12:36:00;;;;;;;10.48;3.30;;;18.00;93.70;;;;;;5033958;28;20032;-74
2023/10/04 12:38:26;;;;;;;12.13;3.42;;;18.00;93.90;;;;;;5033847;28;20394;-76
2023/10/04 12:40:52;;;;;;;11.98;3.78;;;18.00;93.90;;;;;;5033902;28;20033;-77
2023/10/04 12:43:18;;;;;;;13.35;3.80;;;17.90;93.90;;;;;;5033598;28;20044;-77
2023/10/04 12:45:47;;;;;;;14.20;3.58;;;17.90;93.80;;;;;;5033740;28;20025;-78
2023/10/04 12:48:19;;;;;;;13.68;3.97;;;17.90;93.80;;;;;;5033469;28;20073;-77
2023/10/04 12:50:45;;;;;;;11.88;4.13;;;17.90;93.80;;;;;;5033984;28;20113;-77